Time;durP1;ratioP1;P1;durP2;ratioP2;P2;SDS_P1;SDS_P2;PMS_P1;PMS_P2;Temp;Humidity;BMP_temperature;BMP_pressure;BME280_temperature;BME280_humidity;BME280_pressure;Samples;Min_cycle;Max_cycle;Signal;HPM_P1;HPM_P2
2022/03/01 00:01:59;;;;;;;22.13;7.70;;;;;;;;;;5082102;28;20105;-68
2022/03/01 00:04:25;;;;;;;18.83;8.68;;;;;;;;;;5083053;28;20048;-67
2022/03/01 00:06:52;;;;;;;22.67;7.15;;;;;;;;;;5084604;28;20270;-68
2022/03/01 00:09:21;;;;;;;25.15;7.78;;;;;;;;;;5082038;28;20131;-67
2022/03/01 00:11:47;;;;;;;17.92;7.18;;;;;;;;;;5080353;28;20506;-69
2022/03/01 00:14:14;;;;;;;21.27;7.10;;;;;;;;;;5083877;28;20139;-68
2022/03/01 00:16:47;;;;;;;20.95;7.25;;;;;;;;;;5082179;28;20128;-68
2022/03/01 00:19:13;;;;;;;16.58;7.18;;;;;;;;;;5083282;28;20135;-67
2022/03/01 00:21:39;;;;;;;23.77;7.18;;;;;;;;;;5083096;28;20043;-68
2022/03/01 00:24:08;;;;;;;19.52;7.72;;;;;;;;;;5081248;28;20455;-68
2022/03/01 00:26:34;;;;;;;21.47;7.03;;;;;;;;;;5079844;28;20101;-67
2022/03/01 00:29:00;;;;;;;24.40;7.30;;;;;;;;;;5081938;28;20148;-68
2022/03/01 00:31:28;;;;;;;24.75;7.80;;;;;;;;;;5083965;28;20052;-68
2022/03/01 00:33:54;;;;;;;34.60;8.13;;;;;;;;;;5084276;28;20048;-67
2022/03/01 00:36:21;;;;;;;20.08;7.30;;;;;;;;;;5085072;28;20163;-68
2022/03/01 00:38:54;;;;;;;26.27;8.27;;;;;;;;;;5081672;28;20143;-67
2022/03/01 00:41:20;;;;;;;17.58;6.75;;;;;;;;;;5082492;28;20102;-68
2022/03/01 00:43:46;;;;;;;20.75;9.02;;;;;;;;;;5083188;28;20052;-68
2022/03/01 00:46:22;;;;;;;24.98;7.60;;;;;;;;;;5084316;28;20052;-68
2022/03/01 00:48:49;;;;;;;25.05;7.75;;;;;;;;;;5082848;28;20047;-67
2022/03/01 00:51:15;;;;;;;26.27;8.23;;;;;;;;;;5083919;28;20087;-67
2022/03/01 00:53:49;;;;;;;25.02;9.27;;;;;;;;;;5080348;28;20131;-67
2022/03/01 00:56:16;;;;;;;14.32;7.03;;;;;;;;;;5077135;28;20139;-67
2022/03/01 00:58:42;;;;;;;19.75;8.18;;;;;;;;;;5082254;28;20131;-68
2022/03/01 01:01:10;;;;;;;;;;;;;;;;;;5084969;28;20135;-67
2022/03/01 01:03:36;;;;;;;30.85;8.50;;;;;;;;;;5083004;28;19935;-68
2022/03/01 01:06:03;;;;;;;20.17;8.43;;;;;;;;;;5081402;28;20136;-67
2022/03/01 01:08:36;;;;;;;23.98;8.55;;;;;;;;;;5079186;28;20611;-68
2022/03/01 01:11:03;;;;;;;26.13;9.35;;;;;;;;;;5079041;28;20176;-68
2022/03/01 01:13:30;;;;;;;24.80;8.57;;;;;;;;;;5081122;28;20148;-68
2022/03/01 01:16:03;;;;;;;25.55;9.30;;;;;;;;;;5082244;28;20146;-67
2022/03/01 01:18:29;;;;;;;26.60;6.38;;;;;;;;;;5081905;28;20206;-67
2022/03/01 01:20:56;;;;;;;24.02;9.00;;;;;;;;;;5083581;28;20097;-67
2022/03/01 01:23:22;;;;;;;21.63;8.43;;;;;;;;;;5082983;28;20142;-69
2022/03/01 01:25:49;;;;;;;26.05;8.80;;;;;;;;;;5082794;28;20377;-68
2022/03/01 01:28:16;;;;;;;27.63;8.93;;;;;;;;;;5083425;28;20573;-68
2022/03/01 01:30:44;;;;;;;30.40;9.65;;;;;;;;;;5082334;28;20135;-67
2022/03/01 01:33:10;;;;;;;23.00;9.20;;;;;;;;;;5080231;28;20038;-67
2022/03/01 01:35:37;;;;;;;26.20;9.82;;;;;;;;;;5077370;28;20385;-68
2022/03/01 01:38:07;;;;;;;35.53;10.00;;;;;;;;;;5080143;28;20080;-67
2022/03/01 01:40:33;;;;;;;27.77;10.07;;;;;;;;;;5081778;28;20471;-68
2022/03/01 01:43:00;;;;;;;30.27;9.43;;;;;;;;;;5080490;28;20163;-67
2022/03/01 01:45:27;;;;;;;35.63;9.13;;;;;;;;;;5078810;28;20138;-68
2022/03/01 01:47:55;;;;;;;22.02;9.23;;;;;;;;;;5080085;28;20044;-67
2022/03/01 01:50:22;;;;;;;30.40;9.05;;;;;;;;;;5083297;28;20557;-69
2022/03/01 01:52:51;;;;;;;24.52;10.15;;;;;;;;;;5083063;28;20063;-68
2022/03/01 01:55:21;;;;;;;26.33;9.15;;;;;;;;;;5081351;28;20043;-67
2022/03/01 01:57:53;;;;;;;30.65;9.48;;;;;;;;;;5084205;28;20079;-68
2022/03/01 02:00:21;;;;;;;31.05;9.77;;;;;;;;;;5082406;28;20145;-67
2022/03/01 02:02:48;;;;;;;27.38;9.73;;;;;;;;;;5080878;28;20748;-68
2022/03/01 02:05:14;;;;;;;27.20;9.20;;;;;;;;;;5079205;28;20615;-68
2022/03/01 02:07:49;;;;;;;28.90;9.88;;;;;;;;;;5079288;28;20138;-67
2022/03/01 02:10:16;;;;;;;31.63;9.73;;;;;;;;;;5075605;28;20044;-67
2022/03/01 02:12:43;;;;;;;;;;;;;;;;;;5078880;28;20055;-67
2022/03/01 02:15:16;;;;;;;23.98;9.27;;;;;;;;;;5080219;28;19970;-68
2022/03/01 02:17:42;;;;;;;30.95;10.35;;;;;;;;;;5080732;28;20146;-68
2022/03/01 02:20:13;;;;;;;31.60;8.82;;;;;;;;;;5081603;28;20136;-68
2022/03/01 02:22:39;;;;;;;34.50;10.68;;;;;;;;;;5081826;28;20486;-67
2022/03/01 02:25:06;;;;;;;30.27;10.32;;;;;;;;;;5082567;28;20142;-68
2022/03/01 02:27:33;;;;;;;31.73;10.52;;;;;;;;;;5080960;28;20554;-68
2022/03/01 02:30:07;;;;;;;27.52;9.63;;;;;;;;;;5083129;28;20051;-67
2022/03/01 02:32:33;;;;;;;;;;;;;;;;;;5073456;28;20052;-68
2022/03/01 02:35:00;;;;;;;28.40;10.30;;;;;;;;;;5081349;28;19985;-67
2022/03/01 02:37:27;;;;;;;28.65;7.57;;;;;;;;;;5086128;28;20108;-68
2022/03/01 02:39:53;;;;;;;27.45;10.68;;;;;;;;;;5064858;28;20082;-67
2022/03/01 02:42:21;;;;;;;33.13;10.57;;;;;;;;;;5085948;28;20131;-67
2022/03/01 02:44:54;;;;;;;26.38;10.55;;;;;;;;;;5085339;28;20080;-68
2022/03/01 02:47:20;;;;;;;34.75;12.55;;;;;;;;;;5084156;28;20048;-68
2022/03/01 02:49:47;;;;;;;26.57;11.80;;;;;;;;;;5083268;28;20778;-68
2022/03/01 02:52:20;;;;;;;32.53;11.20;;;;;;;;;;5079951;28;20588;-68
2022/03/01 02:54:46;;;;;;;34.85;12.60;;;;;;;;;;5066347;28;20163;-67
2022/03/01 02:57:13;;;;;;;41.97;11.93;;;;;;;;;;5083688;28;20484;-67
2022/03/01 02:59:42;;;;;;;32.55;11.85;;;;;;;;;;5079643;28;20530;-68
2022/03/01 03:02:12;;;;;;;30.10;11.80;;;;;;;;;;5085717;28;20496;-67
2022/03/01 03:04:39;;;;;;;34.80;12.57;;;;;;;;;;5082094;28;20063;-67
2022/03/01 03:07:06;;;;;;;36.78;10.57;;;;;;;;;;5086826;28;20083;-67
2022/03/01 03:09:33;;;;;;;35.65;13.15;;;;;;;;;;5084802;28;20479;-67
2022/03/01 03:11:59;;;;;;;41.38;14.00;;;;;;;;;;5086121;28;20190;-68
2022/03/01 03:14:27;;;;;;;36.63;12.63;;;;;;;;;;5085131;28;20100;-67
2022/03/01 03:16:53;;;;;;;49.00;14.65;;;;;;;;;;5084510;28;20170;-67
2022/03/01 03:19:20;;;;;;;32.33;12.32;;;;;;;;;;5085457;28;20138;-68
2022/03/01 03:21:53;;;;;;;35.63;14.40;;;;;;;;;;5086901;28;20083;-68
2022/03/01 03:24:19;;;;;;;40.08;14.40;;;;;;;;;;5081555;28;20212;-67
2022/03/01 03:26:47;;;;;;;40.22;13.88;;;;;;;;;;5085254;28;20045;-68
2022/03/01 03:29:15;;;;;;;38.75;12.40;;;;;;;;;;5082274;28;20299;-68
2022/03/01 03:31:42;;;;;;;43.33;14.70;;;;;;;;;;5081260;28;20083;-67
2022/03/01 03:34:09;;;;;;;;;;;;;;;;;;5080661;28;20059;-67
2022/03/01 03:36:42;;;;;;;33.85;13.38;;;;;;;;;;5079946;28;21636;-68
2022/03/01 03:39:11;;;;;;;42.17;13.40;;;;;;;;;;5081690;28;20090;-68
2022/03/01 03:41:38;;;;;;;47.45;15.38;;;;;;;;;;5080967;28;20663;-67
2022/03/01 03:44:05;;;;;;;38.70;14.48;;;;;;;;;;5083475;28;20131;-68
2022/03/01 03:46:32;;;;;;;47.90;16.02;;;;;;;;;;5084296;28;20109;-67
2022/03/01 03:48:58;;;;;;;44.43;15.67;;;;;;;;;;5083713;28;20052;-67
2022/03/01 03:51:26;;;;;;;35.88;15.75;;;;;;;;;;5084153;28;20132;-67
2022/03/01 03:53:53;;;;;;;43.63;16.25;;;;;;;;;;5083421;28;20052;-68
2022/03/01 03:56:21;;;;;;;42.13;16.20;;;;;;;;;;5078555;28;20151;-68
2022/03/01 03:58:49;;;;;;;30.02;12.88;;;;;;;;;;5085107;28;20087;-68
2022/03/01 04:01:16;;;;;;;35.00;16.00;;;;;;;;;;5082416;28;20523;-68
2022/03/01 04:03:43;;;;;;;35.83;15.85;;;;;;;;;;5082463;28;20060;-67
2022/03/01 04:06:09;;;;;;;48.97;17.88;;;;;;;;;;5079633;28;20153;-68
2022/03/01 04:08:36;;;;;;;48.00;17.27;;;;;;;;;;5083638;28;20133;-67
2022/03/01 04:11:02;;;;;;;47.25;17.60;;;;;;;;;;5063207;28;20138;-67
2022/03/01 04:13:29;;;;;;;46.08;17.27;;;;;;;;;;5082871;28;20048;-67
2022/03/01 04:15:55;;;;;;;45.92;18.05;;;;;;;;;;5083895;28;20083;-68
2022/03/01 04:18:21;;;;;;;50.33;18.00;;;;;;;;;;5066818;28;20122;-68
2022/03/01 04:20:58;;;;;;;48.10;17.98;;;;;;;;;;5083147;28;20406;-67
2022/03/01 04:23:24;;;;;;;45.40;17.27;;;;;;;;;;5058566;28;20175;-68
2022/03/01 04:25:51;;;;;;;40.28;16.27;;;;;;;;;;5082700;28;20139;-68
2022/03/01 04:28:21;;;;;;;45.08;18.60;;;;;;;;;;5082794;28;20047;-68
2022/03/01 04:30:47;;;;;;;46.42;18.25;;;;;;;;;;5083409;28;20131;-67
2022/03/01 04:33:13;;;;;;;51.28;19.05;;;;;;;;;;5084339;28;20127;-68
2022/03/01 04:35:41;;;;;;;48.83;18.05;;;;;;;;;;5082908;28;20572;-68
2022/03/01 04:38:07;;;;;;;50.43;14.57;;;;;;;;;;5080847;28;20079;-68
2022/03/01 04:40:34;;;;;;;36.67;13.73;;;;;;;;;;5084196;28;20080;-67
2022/03/01 04:43:04;;;;;;;49.35;18.30;;;;;;;;;;5079335;28;20690;-67
2022/03/01 04:45:31;;;;;;;46.50;17.98;;;;;;;;;;5080344;28;20051;-67
2022/03/01 04:47:58;;;;;;;49.50;18.38;;;;;;;;;;5078084;28;20082;-68
2022/03/01 04:50:26;;;;;;;44.20;17.83;;;;;;;;;;5081187;28;20536;-67
2022/03/01 04:52:53;;;;;;;51.45;19.50;;;;;;;;;;5084491;28;20127;-67
2022/03/01 04:55:19;;;;;;;56.92;18.00;;;;;;;;;;5084011;28;20134;-68
2022/03/01 04:57:48;;;;;;;55.95;19.55;;;;;;;;;;5065479;28;20139;-68
2022/03/01 05:00:15;;;;;;;48.70;19.37;;;;;;;;;;5082314;28;20097;-67
2022/03/01 05:02:42;;;;;;;48.05;19.08;;;;;;;;;;5079734;28;20839;-67
2022/03/01 05:05:10;;;;;;;49.55;18.45;;;;;;;;;;5081731;28;20085;-68
2022/03/01 05:07:37;;;;;;;53.13;19.20;;;;;;;;;;5077434;28;20060;-67
2022/03/01 05:10:04;;;;;;;60.25;21.23;;;;;;;;;;5079261;28;20463;-67
2022/03/01 05:12:44;;;;;;;57.95;22.15;;;;;;;;;;5083240;28;20067;-67
2022/03/01 05:15:11;;;;;;;56.40;20.77;;;;;;;;;;5077614;28;20543;-67
2022/03/01 05:17:41;;;;;;;52.25;18.58;;;;;;;;;;5083463;28;20135;-67
2022/03/01 05:20:08;;;;;;;57.80;22.50;;;;;;;;;;5082354;28;20098;-67
2022/03/01 05:22:35;;;;;;;53.17;19.67;;;;;;;;;;5080614;28;20127;-67
2022/03/01 05:25:10;;;;;;;49.80;20.92;;;;;;;;;;5077321;28;20152;-67
2022/03/01 05:27:40;;;;;;;55.88;19.88;;;;;;;;;;5079998;28;20579;-67
2022/03/01 05:30:07;;;;;;;58.03;20.48;;;;;;;;;;5078504;28;20052;-67
2022/03/01 05:32:43;;;;;;;56.42;20.65;;;;;;;;;;5080829;28;20083;-67
2022/03/01 05:35:10;;;;;;;63.88;19.90;;;;;;;;;;5076902;28;20121;-67
2022/03/01 05:37:36;;;;;;;56.55;20.38;;;;;;;;;;5079090;28;20086;-67
2022/03/01 05:40:07;;;;;;;50.03;20.50;;;;;;;;;;5077833;28;20051;-67
2022/03/01 05:42:34;;;;;;;58.58;19.88;;;;;;;;;;5081659;28;20130;-67
2022/03/01 05:45:00;;;;;;;37.05;15.20;;;;;;;;;;5079786;28;20048;-67
2022/03/01 05:47:27;;;;;;;42.53;17.42;;;;;;;;;;5080682;28;20491;-67
2022/03/01 05:49:54;;;;;;;51.20;19.93;;;;;;;;;;5078949;28;20558;-68
2022/03/01 05:52:20;;;;;;;51.83;18.50;;;;;;;;;;5081471;28;20051;-67
2022/03/01 05:54:54;;;;;;;51.28;18.15;;;;;;;;;;5081768;28;20111;-67
2022/03/01 05:57:28;;;;;;;49.30;19.02;;;;;;;;;;5080178;28;20099;-67
2022/03/01 06:00:03;;;;;;;46.53;19.35;;;;;;;;;;5081051;28;20127;-67
2022/03/01 06:02:30;;;;;;;52.05;19.40;;;;;;;;;;5082389;28;20099;-67
2022/03/01 06:04:57;;;;;;;46.60;19.03;;;;;;;;;;5078637;28;20553;-67
2022/03/01 06:07:26;;;;;;;57.15;19.50;;;;;;;;;;5080148;28;20597;-68
2022/03/01 06:09:52;;;;;;;54.47;19.83;;;;;;;;;;5078654;28;20084;-67
2022/03/01 06:12:18;;;;;;;52.53;19.00;;;;;;;;;;5077715;28;20601;-67
2022/03/01 06:14:45;;;;;;;46.45;18.48;;;;;;;;;;5078439;28;20090;-67
2022/03/01 06:17:11;;;;;;;51.33;18.10;;;;;;;;;;5080102;28;20486;-67
2022/03/01 06:19:38;;;;;;;53.95;19.77;;;;;;;;;;5077129;28;20086;-67
2022/03/01 06:22:06;;;;;;;48.30;18.17;;;;;;;;;;5078525;28;20062;-67
2022/03/01 06:24:33;;;;;;;49.58;19.08;;;;;;;;;;5079686;28;20087;-67
2022/03/01 06:26:59;;;;;;;46.08;18.30;;;;;;;;;;5081154;28;20080;-67
2022/03/01 06:29:26;;;;;;;46.83;18.40;;;;;;;;;;5081133;28;20751;-68
2022/03/01 06:31:56;;;;;;;49.15;19.20;;;;;;;;;;5077677;28;20048;-67
2022/03/01 06:34:22;;;;;;;45.90;18.30;;;;;;;;;;5062347;28;20088;-67
2022/03/01 06:36:54;;;;;;;54.63;19.67;;;;;;;;;;5079731;28;20094;-67
2022/03/01 06:39:20;;;;;;;50.95;18.85;;;;;;;;;;5080257;28;20538;-68
2022/03/01 06:41:47;;;;;;;51.72;19.42;;;;;;;;;;5078351;28;20091;-67
2022/03/01 06:44:20;;;;;;;50.65;19.13;;;;;;;;;;5080629;28;20138;-68
2022/03/01 06:46:47;;;;;;;45.72;19.10;;;;;;;;;;5079627;28;20385;-68
2022/03/01 06:49:13;;;;;;;45.75;17.70;;;;;;;;;;5078726;28;20056;-68
2022/03/01 06:51:41;;;;;;;47.35;17.92;;;;;;;;;;5080777;28;20127;-69
2022/03/01 06:54:07;;;;;;;53.65;17.88;;;;;;;;;;5079559;28;20475;-68
2022/03/01 06:56:34;;;;;;;46.60;18.38;;;;;;;;;;5079207;28;20071;-67
2022/03/01 06:59:00;;;;;;;42.10;17.00;;;;;;;;;;5078276;28;20491;-68
2022/03/01 07:01:27;;;;;;;50.10;18.80;;;;;;;;;;5082112;28;20123;-68
2022/03/01 07:03:54;;;;;;;51.58;17.95;;;;;;;;;;5076143;28;20052;-67
2022/03/01 07:06:21;;;;;;;45.80;17.40;;;;;;;;;;5077475;28;20163;-68
2022/03/01 07:08:49;;;;;;;40.00;16.87;;;;;;;;;;5077563;28;20090;-67
2022/03/01 07:11:15;;;;;;;43.47;17.98;;;;;;;;;;5078748;28;20091;-68
2022/03/01 07:13:49;;;;;;;48.28;17.63;;;;;;;;;;5080065;28;20135;-68
2022/03/01 07:16:16;;;;;;;43.58;17.65;;;;;;;;;;5085910;28;20080;-68
2022/03/01 07:18:43;;;;;;;42.97;15.77;;;;;;;;;;5085697;28;20518;-67
2022/03/01 07:21:16;;;;;;;41.63;17.23;;;;;;;;;;5081524;28;20083;-68
2022/03/01 07:23:42;;;;;;;45.83;17.88;;;;;;;;;;5083094;28;20133;-67
2022/03/01 07:26:09;;;;;;;41.33;16.75;;;;;;;;;;5081343;28;20166;-67
2022/03/01 07:28:42;;;;;;;41.08;16.95;;;;;;;;;;5068719;28;20080;-68
2022/03/01 07:31:08;;;;;;;42.67;16.42;;;;;;;;;;5083085;28;20080;-68
2022/03/01 07:33:38;;;;;;;37.60;16.40;;;;;;;;;;5080875;28;20051;-67
2022/03/01 07:36:07;;;;;;;38.92;17.05;;;;;;;;;;5081154;28;20055;-67
2022/03/01 07:38:34;;;;;;;37.10;15.82;;;;;;;;;;5079114;28;20083;-67
2022/03/01 07:41:00;;;;;;;36.72;15.43;;;;;;;;;;5076255;28;20084;-68
2022/03/01 07:43:27;;;;;;;48.67;16.50;;;;;;;;;;5081099;28;20131;-67
2022/03/01 07:45:53;;;;;;;39.15;15.60;;;;;;;;;;5084168;28;20131;-68
2022/03/01 07:48:20;;;;;;;47.13;17.70;;;;;;;;;;5082418;28;20558;-67
2022/03/01 07:50:53;;;;;;;41.00;15.52;;;;;;;;;;5080783;28;20088;-67
2022/03/01 07:53:19;;;;;;;39.92;15.95;;;;;;;;;;5080336;28;20131;-68
2022/03/01 07:55:48;;;;;;;39.55;15.73;;;;;;;;;;5083532;28;20052;-68
2022/03/01 07:58:22;;;;;;;37.88;15.63;;;;;;;;;;5081909;28;20084;-68
2022/03/01 08:00:49;;;;;;;;;;;;;;;;;;5083730;28;20045;-67
2022/03/01 08:03:16;;;;;;;35.47;14.95;;;;;;;;;;5076159;28;19927;-67
2022/03/01 08:05:44;;;;;;;39.92;15.82;;;;;;;;;;5082585;28;20048;-68
2022/03/01 08:08:11;;;;;;;46.67;16.05;;;;;;;;;;5081176;28;20072;-68
2022/03/01 08:10:37;;;;;;;34.67;14.95;;;;;;;;;;5081501;28;20131;-67
2022/03/01 08:13:27;;;;;;;38.40;15.95;;;;;;;;;;5081911;28;20059;-68
2022/03/01 08:15:53;;;;;;;43.38;15.15;;;;;;;;;;5079580;28;20472;-68
2022/03/01 08:18:21;;;;;;;42.95;16.90;;;;;;;;;;5061610;28;20044;-68
2022/03/01 08:20:47;;;;;;;39.20;15.75;;;;;;;;;;5062991;28;20089;-68
2022/03/01 08:23:14;;;;;;;41.75;14.68;;;;;;;;;;5079535;28;20547;-68
2022/03/01 08:25:47;;;;;;;33.35;14.32;;;;;;;;;;5078131;28;20051;-68
2022/03/01 08:28:13;;;;;;;35.47;14.95;;;;;;;;;;5078664;28;20059;-67
2022/03/01 08:30:40;;;;;;;39.47;14.95;;;;;;;;;;5077888;28;20067;-67
2022/03/01 08:33:07;;;;;;;42.00;14.70;;;;;;;;;;5079372;28;20055;-68
2022/03/01 08:35:37;;;;;;;35.08;13.55;;;;;;;;;;5079835;28;20061;-67
2022/03/01 08:38:04;;;;;;;49.88;16.80;;;;;;;;;;5078699;28;20547;-67
2022/03/01 08:40:39;;;;;;;44.55;15.73;;;;;;;;;;5076840;28;20056;-67
2022/03/01 08:43:06;;;;;;;39.22;15.00;;;;;;;;;;5081775;28;20079;-68
2022/03/01 08:45:33;;;;;;;;;;;;;;;;;;5080963;28;20056;-68
2022/03/01 08:48:08;;;;;;;39.80;14.35;;;;;;;;;;5078950;28;20378;-67
2022/03/01 08:50:34;;;;;;;35.05;14.35;;;;;;;;;;5079344;28;20079;-67
2022/03/01 08:53:10;;;;;;;36.17;13.70;;;;;;;;;;5080931;28;20128;-67
2022/03/01 08:55:43;;;;;;;43.17;14.18;;;;;;;;;;5081594;28;20045;-68
2022/03/01 08:58:09;;;;;;;38.53;14.98;;;;;;;;;;5077028;28;20058;-67
2022/03/01 09:00:36;;;;;;;36.67;15.35;;;;;;;;;;5079224;28;20102;-67
2022/03/01 09:03:03;;;;;;;38.17;14.15;;;;;;;;;;5078811;28;20412;-67
2022/03/01 09:05:32;;;;;;;37.15;14.02;;;;;;;;;;5080425;28;20495;-67
2022/03/01 09:07:59;;;;;;;35.73;14.03;;;;;;;;;;5078771;28;20045;-67
2022/03/01 09:10:25;;;;;;;30.08;12.43;;;;;;;;;;5079559;28;20079;-68
2022/03/01 09:12:52;;;;;;;37.80;14.07;;;;;;;;;;5079157;28;20678;-68
2022/03/01 09:15:20;;;;;;;37.22;14.93;;;;;;;;;;5077517;28;20106;-68
2022/03/01 09:17:48;;;;;;;30.55;13.18;;;;;;;;;;5076127;28;20044;-68
2022/03/01 09:20:15;;;;;;;34.53;15.50;;;;;;;;;;5079853;28;20070;-67
2022/03/01 09:22:42;;;;;;;34.72;13.52;;;;;;;;;;5077053;28;20530;-68
2022/03/01 09:25:10;;;;;;;39.95;14.80;;;;;;;;;;5079818;28;20142;-67
2022/03/01 09:27:36;;;;;;;45.05;15.93;;;;;;;;;;5081743;28;20079;-67
2022/03/01 09:30:03;;;;;;;33.33;12.93;;;;;;;;;;5082128;28;20082;-68
2022/03/01 09:32:31;;;;;;;31.55;13.70;;;;;;;;;;5083360;28;20080;-68
2022/03/01 09:34:58;;;;;;;33.78;14.40;;;;;;;;;;5079535;28;20459;-68
2022/03/01 09:37:25;;;;;;;34.80;14.93;;;;;;;;;;5075710;28;20204;-67
2022/03/01 09:39:59;;;;;;;32.72;13.57;;;;;;;;;;5080244;28;20096;-67
2022/03/01 09:42:26;;;;;;;36.65;14.48;;;;;;;;;;5079085;28;20124;-67
2022/03/01 09:44:53;;;;;;;40.05;14.95;;;;;;;;;;5082187;28;20090;-68
2022/03/01 09:47:22;;;;;;;40.45;14.60;;;;;;;;;;5078928;28;20127;-68
2022/03/01 09:49:48;;;;;;;35.07;14.33;;;;;;;;;;5078876;28;20147;-67
2022/03/01 09:52:15;;;;;;;42.58;14.75;;;;;;;;;;5081610;28;20813;-67
2022/03/01 09:54:49;;;;;;;33.47;12.82;;;;;;;;;;5077843;28;20143;-67
2022/03/01 09:57:17;;;;;;;33.25;13.75;;;;;;;;;;5077747;28;20044;-67
2022/03/01 09:59:43;;;;;;;34.92;13.52;;;;;;;;;;5079484;28;20145;-67
2022/03/01 10:02:10;;;;;;;37.10;14.40;;;;;;;;;;5077829;28;20127;-67
2022/03/01 10:04:51;;;;;;;37.45;14.02;;;;;;;;;;5076839;28;20056;-67
2022/03/01 10:07:23;;;;;;;32.22;12.43;;;;;;;;;;5078931;28;20575;-68
2022/03/01 10:09:50;;;;;;;37.03;14.85;;;;;;;;;;5078971;28;20052;-67
2022/03/01 10:12:23;;;;;;;33.17;14.32;;;;;;;;;;5077504;28;20068;-69
2022/03/01 10:14:59;;;;;;;34.85;13.95;;;;;;;;;;5076400;28;20123;-68
2022/03/01 10:17:37;;;;;;;36.60;14.77;;;;;;;;;;5077959;28;20077;-67
2022/03/01 10:20:09;;;;;;;40.47;15.25;;;;;;;;;;5079278;28;20139;-68
2022/03/01 10:22:43;;;;;;;36.05;14.18;;;;;;;;;;5077551;28;20083;-68
2022/03/01 10:25:10;;;;;;;33.08;14.07;;;;;;;;;;5079804;28;20106;-68
2022/03/01 10:27:37;;;;;;;33.45;13.77;;;;;;;;;;5079743;28;20132;-67
2022/03/01 10:30:04;;;;;;;33.60;14.70;;;;;;;;;;5074680;28;20127;-69
2022/03/01 10:32:37;;;;;;;36.28;13.82;;;;;;;;;;5077341;28;20048;-68
2022/03/01 10:35:09;;;;;;;37.88;14.52;;;;;;;;;;5081691;28;20051;-68
2022/03/01 10:37:37;;;;;;;33.60;15.88;;;;;;;;;;5077312;28;20125;-68
2022/03/01 10:40:13;;;;;;;38.20;16.13;;;;;;;;;;5070325;28;20044;-68
2022/03/01 10:42:44;;;;;;;45.95;15.40;;;;;;;;;;5073978;28;20049;-68
2022/03/01 10:45:10;;;;;;;32.97;13.10;;;;;;;;;;5072665;28;20144;-68
2022/03/01 10:47:37;;;;;;;37.85;13.93;;;;;;;;;;5072096;28;20298;-68
2022/03/01 10:50:08;;;;;;;34.80;14.40;;;;;;;;;;5072322;28;20563;-68
2022/03/01 10:52:41;;;;;;;44.35;14.98;;;;;;;;;;5077459;28;20044;-68
2022/03/01 10:55:21;;;;;;;38.33;14.10;;;;;;;;;;5076593;28;20498;-68
2022/03/01 10:58:10;;;;;;;46.33;16.40;;;;;;;;;;5072554;28;20084;-68
2022/03/01 11:00:37;;;;;;;36.70;14.73;;;;;;;;;;5072577;28;20125;-68
2022/03/01 11:03:05;;;;;;;36.80;14.60;;;;;;;;;;5076528;28;20441;-68
2022/03/01 11:05:31;;;;;;;;;;;;;;;;;;5076222;28;20795;-68
2022/03/01 11:08:20;;;;;;;41.40;17.30;;;;;;;;;;5075348;28;19950;-68
2022/03/01 11:10:51;;;;;;;37.80;14.55;;;;;;;;;;5077069;28;20219;-69
2022/03/01 11:13:18;;;;;;;33.30;14.63;;;;;;;;;;5075412;28;20496;-68
2022/03/01 11:15:45;;;;;;;;;;;;;;;;;;5076214;28;20055;-68
2022/03/01 11:18:29;;;;;;;41.88;14.43;;;;;;;;;;5074473;28;19920;-68
2022/03/01 11:20:56;;;;;;;31.50;15.05;;;;;;;;;;5076565;28;20071;-68
2022/03/01 11:23:26;;;;;;;32.78;15.18;;;;;;;;;;5074831;28;20070;-68
2022/03/01 11:25:53;;;;;;;;;;;;;;;;;;5076044;28;20048;-68
2022/03/01 11:28:28;;;;;;;39.20;14.68;;;;;;;;;;5076218;28;19956;-68
2022/03/01 11:31:01;;;;;;;40.20;13.35;;;;;;;;;;5074946;28;20129;-68
2022/03/01 11:33:35;;;;;;;38.10;16.20;;;;;;;;;;5078024;28;20059;-68
2022/03/01 11:36:08;;;;;;;42.83;15.95;;;;;;;;;;5074438;28;20219;-68
2022/03/01 11:38:41;;;;;;;35.75;14.52;;;;;;;;;;5078446;28;20079;-68
2022/03/01 11:41:09;;;;;;;39.08;15.20;;;;;;;;;;5081851;28;20083;-68
2022/03/01 11:43:37;;;;;;;42.28;15.00;;;;;;;;;;5081479;28;20097;-68
2022/03/01 11:46:13;;;;;;;39.50;17.25;;;;;;;;;;5083146;28;20554;-68
2022/03/01 11:48:55;;;;;;;47.58;16.50;;;;;;;;;;5082414;28;20044;-68
2022/03/01 11:51:32;;;;;;;41.63;16.25;;;;;;;;;;5080928;28;20135;-68
2022/03/01 11:54:09;;;;;;;33.25;15.32;;;;;;;;;;5082791;28;20132;-68
2022/03/01 11:56:35;;;;;;;48.70;16.20;;;;;;;;;;5077307;28;20071;-69
2022/03/01 11:59:06;;;;;;;48.58;16.25;;;;;;;;;;5079084;28;20079;-68
2022/03/01 12:01:34;;;;;;;44.03;16.15;;;;;;;;;;5081044;28;20547;-67
2022/03/01 12:04:02;;;;;;;47.88;16.30;;;;;;;;;;5080701;28;20388;-68
2022/03/01 12:06:29;;;;;;;41.60;16.48;;;;;;;;;;5080129;28;20052;-68
2022/03/01 12:09:04;;;;;;;45.92;17.88;;;;;;;;;;5079876;28;20080;-68
2022/03/01 12:11:35;;;;;;;40.75;17.67;;;;;;;;;;5081006;28;20048;-68
2022/03/01 12:14:20;;;;;;;48.83;17.98;;;;;;;;;;5079477;28;20076;-68
2022/03/01 12:16:53;;;;;;;41.63;17.40;;;;;;;;;;5081053;28;20539;-68
2022/03/01 12:19:21;;;;;;;49.15;16.40;;;;;;;;;;5078934;28;20075;-68
2022/03/01 12:21:49;;;;;;;58.35;18.95;;;;;;;;;;5080021;28;20562;-68
2022/03/01 12:24:21;;;;;;;41.63;17.58;;;;;;;;;;5079527;28;20475;-69
2022/03/01 12:26:52;;;;;;;48.33;19.05;;;;;;;;;;5084427;28;20143;-68
2022/03/01 12:29:20;;;;;;;41.20;17.13;;;;;;;;;;5079889;28;20139;-68
2022/03/01 12:31:56;;;;;;;47.97;18.73;;;;;;;;;;5080782;28;20076;-69
2022/03/01 12:34:25;;;;;;;46.28;18.48;;;;;;;;;;5083466;28;20083;-68
2022/03/01 12:36:53;;;;;;;41.97;16.50;;;;;;;;;;5077176;28;20090;-68
2022/03/01 12:39:20;;;;;;;46.80;16.73;;;;;;;;;;5075920;28;20047;-68
2022/03/01 12:41:47;;;;;;;43.00;17.55;;;;;;;;;;5073021;28;20070;-69
2022/03/01 12:44:14;;;;;;;48.63;17.00;;;;;;;;;;5076364;28;20130;-68
2022/03/01 12:46:41;;;;;;;42.05;17.35;;;;;;;;;;5073859;28;20105;-68
2022/03/01 12:49:09;;;;;;;50.72;18.80;;;;;;;;;;5082102;28;20340;-68
2022/03/01 12:51:35;;;;;;;;;;;;;;;;;;5079955;28;20137;-68
2022/03/01 12:54:12;;;;;;;46.40;17.85;;;;;;;;;;5080882;28;19964;-68
2022/03/01 12:56:40;;;;;;;53.25;18.05;;;;;;;;;;5078175;28;20642;-68
2022/03/01 12:59:19;;;;;;;52.55;18.17;;;;;;;;;;5080398;28;20102;-68
2022/03/01 13:01:46;;;;;;;37.97;17.83;;;;;;;;;;5079560;28;20465;-68
2022/03/01 13:04:17;;;;;;;47.65;19.05;;;;;;;;;;5079061;28;20101;-68
2022/03/01 13:06:44;;;;;;;49.97;19.70;;;;;;;;;;5081246;28;20708;-68
2022/03/01 13:09:11;;;;;;;43.40;17.73;;;;;;;;;;5079124;28;20086;-68
2022/03/01 13:11:45;;;;;;;50.38;18.42;;;;;;;;;;5077999;28;20052;-68
2022/03/01 13:14:12;;;;;;;46.92;18.67;;;;;;;;;;5075568;28;20044;-68
2022/03/01 13:16:40;;;;;;;50.00;20.13;;;;;;;;;;5082404;28;20052;-68
2022/03/01 13:19:11;;;;;;;49.53;18.35;;;;;;;;;;5079181;28;20055;-68
2022/03/01 13:21:39;;;;;;;46.78;18.60;;;;;;;;;;5080746;28;20058;-68
2022/03/01 13:24:11;;;;;;;54.92;18.08;;;;;;;;;;5077640;28;20472;-68
2022/03/01 13:26:45;;;;;;;49.40;18.25;;;;;;;;;;5077774;28;20468;-68
2022/03/01 13:29:13;;;;;;;47.72;18.52;;;;;;;;;;5079852;28;20123;-68
2022/03/01 13:31:40;;;;;;;48.90;19.40;;;;;;;;;;5080557;28;20131;-68
2022/03/01 13:34:09;;;;;;;47.50;19.00;;;;;;;;;;5081615;28;20048;-68
2022/03/01 13:36:38;;;;;;;51.38;19.33;;;;;;;;;;5081724;28;20064;-68
2022/03/01 13:39:08;;;;;;;49.20;19.02;;;;;;;;;;5076469;28;20113;-68
2022/03/01 13:41:39;;;;;;;45.70;17.92;;;;;;;;;;5079150;28;20048;-68
2022/03/01 13:44:13;;;;;;;44.13;17.92;;;;;;;;;;5071378;28;20123;-68
2022/03/01 13:46:51;;;;;;;43.10;17.48;;;;;;;;;;5072189;28;20059;-69
2022/03/01 13:49:23;;;;;;;46.33;17.77;;;;;;;;;;5073277;28;20864;-68
2022/03/01 13:52:06;;;;;;;47.35;17.45;;;;;;;;;;5071875;28;20190;-68
2022/03/01 13:54:33;;;;;;;48.53;19.73;;;;;;;;;;5071851;28;20145;-69
2022/03/01 13:57:07;;;;;;;39.22;17.23;;;;;;;;;;5074197;28;20135;-68
2022/03/01 13:59:34;;;;;;;49.92;18.45;;;;;;;;;;5071398;28;20484;-68
2022/03/01 14:02:01;;;;;;;48.33;18.48;;;;;;;;;;5073454;28;20122;-68
2022/03/01 14:04:28;;;;;;;48.13;16.85;;;;;;;;;;5072074;28;20055;-68
2022/03/01 14:06:55;;;;;;;43.47;18.65;;;;;;;;;;5071835;28;20139;-68
2022/03/01 14:09:23;;;;;;;39.70;16.92;;;;;;;;;;5060109;28;20101;-68
2022/03/01 14:12:00;;;;;;;47.80;18.20;;;;;;;;;;5073035;28;20666;-68
2022/03/01 14:14:28;;;;;;;46.65;17.17;;;;;;;;;;5074015;28;20044;-68
2022/03/01 14:16:55;;;;;;;40.63;16.58;;;;;;;;;;5072563;28;20056;-68
2022/03/01 14:19:22;;;;;;;50.22;18.35;;;;;;;;;;5072702;28;20136;-69
2022/03/01 14:21:48;;;;;;;51.67;17.15;;;;;;;;;;5071486;28;20079;-68
2022/03/01 14:24:16;;;;;;;41.20;16.80;;;;;;;;;;5072267;28;20051;-68
2022/03/01 14:26:54;;;;;;;49.85;17.05;;;;;;;;;;5077199;28;20048;-68
2022/03/01 14:29:21;;;;;;;44.45;17.05;;;;;;;;;;5076100;28;20075;-68
2022/03/01 14:31:47;;;;;;;50.75;16.42;;;;;;;;;;5078044;28;20121;-68
2022/03/01 14:34:20;;;;;;;50.83;17.83;;;;;;;;;;5085792;28;20064;-68